Latest Weather Observations for Hopetoun Airport

IDV60801

Issued at 5:02 pm EDT Sunday 22 October 2017 (issued every 30 minutes, with the page automatically refreshed every 10 minutes)

About weather observations | Map of weather stations | Latest weather observations for VIC | Other Formats
Station Details ID: 077010 Name: HOPETOUN AIRPORT Lat: -35.72 Lon: 142.36 Height: 77.3 m
Data from the previous 72 hours. | See also: Recent months at Hopetoun Airport
Date/Time
EDT
Temp
°C
App
Temp
°C
Dew
Point
°C
Rel
Hum
%
Delta-T
°C
Wind Press
QNH
hPa
Press
MSL
hPa
Rain since
9am
mm
Dir  Spd
km/h
Gust
km/h
Spd
kts
Gust
kts
22/05:00pm 18.9 14.7 7.4 47 5.8 SSW 19 28 10 15 1018.0 1017.9 0.0
22/04:30pm 18.9 14.0 7.0 46 6.0 S 22 33 12 18 1018.1 1018.0 0.0
22/04:00pm 19.4 14.1 6.8 44 6.3 S 24 32 13 17 1018.2 1018.1 0.0
22/03:30pm 19.5 14.2 6.6 43 6.5 S 24 39 13 21 1018.2 1018.1 0.0
22/03:00pm 19.4 14.8 6.5 43 6.5 S 20 32 11 17 1018.5 1018.4 0.0
22/02:30pm 20.2 15.5 6.2 40 7.0 S 20 28 11 15 1018.5 1018.4 0.0
22/02:00pm 19.9 15.9 6.6 42 6.7 S 17 28 9 15 1018.8 1018.7 0.0
22/01:30pm 19.9 16.0 7.0 43 6.6 S 17 28 9 15 1019.0 1018.9 0.0
22/01:00pm 18.5 14.1 6.7 46 5.9 S 19 32 10 17 1019.4 1019.3 0.0
22/12:30pm 17.5 12.5 6.4 48 5.5 S 22 32 12 17 1020.0 1019.9 0.0
22/12:00pm 16.9 13.2 6.4 50 5.2 S 15 28 8 15 1020.4 1020.3 0.0
22/11:30am 16.0 11.5 6.2 52 4.8 SSW 19 28 10 15 1021.0 1020.9 0.0
22/11:00am 15.3 10.2 6.1 54 4.4 SW 22 30 12 16 1021.3 1021.2 0.0
22/10:30am 15.2 10.5 6.0 54 4.4 SSW 20 30 11 16 1021.7 1021.6 0.0
22/10:00am 12.8 7.9 5.0 59 3.6 SSW 20 28 11 15 1021.6 1021.5 0.0
22/09:30am 13.7 8.9 5.6 58 3.8 SW 20 28 11 15 1021.2 1021.1 0.0
22/09:00am 12.3 7.0 5.2 62 3.3 SSW 22 30 12 16 1021.2 1021.1 0.0
22/08:30am 11.6 5.9 5.0 64 3.0 SSW 24 32 13 17 1021.0 1020.9 0.0
22/08:00am 11.4 6.7 5.3 66 2.8 SSW 19 26 10 14 1020.7 1020.6 0.0
22/07:30am 11.0 6.3 5.3 68 2.6 SSW 19 28 10 15 1020.5 1020.4 0.0
22/07:00am 10.8 6.1 5.1 68 2.6 SSW 19 35 10 19 1020.5 1020.4 0.0
22/06:30am 10.7 6.4 5.3 69 2.5 SSW 17 28 9 15 1020.3 1020.2 0.0
22/06:00am 10.8 6.6 5.8 71 2.3 SSW 17 26 9 14 1020.2 1020.1 0.0
22/05:30am 10.8 7.1 6.2 73 2.2 SSW 15 24 8 13 1019.8 1019.7 0.0
22/05:00am 10.7 6.6 6.3 74 2.1 SSW 17 22 9 12 1020.2 1020.1 0.0
22/04:30am 10.6 6.5 6.4 75 2.0 SSW 17 24 9 13 1020.5 1020.4 0.0
22/04:00am 10.2 6.2 6.5 78 1.7 SSW 17 20 9 11 1020.7 1020.6 0.0
22/03:30am 9.8 5.9 6.9 82 1.4 SSW 17 28 9 15 1021.0 1020.9 0.0
22/03:00am 9.6 5.3 6.9 83 1.3 SSW 19 24 10 13 1021.1 1021.0 0.0
22/02:30am 11.2 5.6 7.1 76 2.0 SW 26 37 14 20 1021.2 1021.1 0.0
22/02:00am 12.0 7.5 7.1 72 2.4 SSW 20 32 11 17 1021.3 1021.2 0.0
22/01:30am 12.3 8.8 7.0 70 2.6 SSW 15 26 8 14 1021.6 1021.5 0.0
22/01:00am 12.4 9.3 5.6 63 3.2 S 11 19 6 10 1021.8 1021.7 0.0
22/12:30am 12.6 9.1 5.3 61 3.4 S 13 20 7 11 1022.1 1022.0 0.0
22/12:00am 13.2 9.2 6.5 64 3.2 S 17 28 9 15 1022.3 1022.2 0.0
 
Date/Time
EDT
Temp
°C
App
Temp
°C
Dew
Point
°C
Rel
Hum
%
Delta-T
°C
Wind Press
QNH
hPa
Press
MSL
hPa
Rain since
9am
mm
Dir  Spd
km/h
Gust
km/h
Spd
kts
Gust
kts
21/11:30pm 11.7 9.6 6.8 72 2.3 S 7 13 4 7 1022.5 1022.4 0.0
21/11:00pm 10.1 7.1 5.9 75 1.9 SSW 11 13 6 7 1022.7 1022.6 0.0
21/10:30pm 10.5 7.3 5.3 70 2.4 SSW 11 13 6 7 1022.9 1022.8 0.0
21/10:00pm 11.9 8.7 5.3 64 3.0 SSW 11 15 6 8 1023.0 1022.9 0.0
21/09:30pm 13.1 9.6 5.5 60 3.6 S 13 19 7 10 1022.9 1022.8 0.0
21/09:00pm 13.5 10.4 5.7 59 3.7 S 11 17 6 9 1022.8 1022.7 0.0
21/08:30pm 12.9 9.4 5.3 60 3.5 SSW 13 17 7 9 1022.8 1022.7 0.0
21/08:00pm 14.2 9.9 5.3 55 4.2 SSW 17 24 9 13 1022.7 1022.6 0.0
21/07:30pm 15.4 9.8 5.6 52 4.7 SW 24 37 13 20 1022.5 1022.4 0.0
21/07:00pm 16.3 10.3 5.3 48 5.3 SW 26 33 14 18 1022.3 1022.2 0.0
21/06:30pm 17.7 12.1 5.6 45 5.9 SSW 24 35 13 19 1022.3 1022.2 0.0
21/06:00pm 17.2 11.5 4.9 44 5.9 SSW 24 37 13 20 1022.3 1022.2 0.0
21/05:30pm 18.4 12.1 5.6 43 6.3 SSW 28 43 15 23 1022.5 1022.4 0.0
21/05:00pm 18.1 12.0 5.0 42 6.3 SSW 26 35 14 19 1022.6 1022.5 0.0
21/04:30pm 19.6 13.1 4.5 37 7.3 SSW 28 39 15 21 1022.5 1022.4 0.0
21/04:00pm 19.1 13.8 4.8 39 6.9 SSW 22 33 12 18 1022.8 1022.7 0.0
21/03:30pm 18.0 13.2 4.6 41 6.4 SSW 19 32 10 17 1023.2 1023.1 0.0
21/03:00pm 18.1 13.0 4.3 40 6.5 SSW 20 28 11 15 1023.7 1023.6 0.0
21/02:30pm 18.9 12.8 4.7 39 6.9 SW 26 39 14 21 1024.0 1023.9 0.0
21/02:00pm 17.7 12.6 4.3 41 6.3 SSW 20 39 11 21 1024.5 1024.4 0.0
21/01:30pm 17.2 11.1 4.9 44 5.9 S 26 35 14 19 1024.8 1024.7 0.0
21/01:00pm 17.2 11.9 5.2 45 5.7 SSW 22 35 12 19 1025.3 1025.2 0.0
21/12:30pm 16.3 11.0 5.0 47 5.4 SSW 22 35 12 19 1025.9 1025.8 0.0
21/12:00pm 15.0 9.6 4.4 49 4.9 SSW 22 39 12 21 1026.6 1026.6 0.0
21/11:30am 15.2 9.9 5.1 51 4.8 SSW 22 32 12 17 1027.1 1027.1 0.0
21/11:00am 13.2 8.2 4.6 56 3.9 SSW 20 35 11 19 1027.6 1027.6 0.0
21/10:30am 13.4 8.1 4.8 56 4.0 S 22 30 12 16 1027.8 1027.8 0.0
21/10:00am 12.5 7.5 4.5 58 3.6 S 20 32 11 17 1027.8 1027.8 0.0
21/09:30am 12.0 7.3 5.0 62 3.2 S 19 26 10 14 1027.6 1027.6 0.0
21/09:00am 11.1 7.1 5.0 66 2.8 S 15 22 8 12 1027.8 1027.8 0.0
21/08:30am 9.3 5.7 5.1 75 1.9 SSW 13 17 7 9 1027.6 1027.6 0.0
21/08:00am 7.0 3.7 4.7 85 1.0 SSW 11 15 6 8 1027.5 1027.5 0.0
21/07:30am 5.3 2.3 4.0 91 0.6 SSW 9 15 5 8 1027.5 1027.5 0.0
21/07:00am 4.0 0.8 3.1 94 0.4 SSW 9 13 5 7 1027.3 1027.3 0.0
21/06:30am 3.8 0.6 2.9 94 0.4 SSW 9 13 5 7 1027.2 1027.2 0.0
21/06:00am 3.8 0.2 2.9 94 0.4 SSW 11 13 6 7 1027.1 1027.1 0.0
21/05:30am 3.9 0.7 2.9 93 0.4 SSW 9 13 5 7 1027.2 1027.2 0.0
21/05:00am 4.0 0.8 2.8 92 0.5 SSW 9 11 5 6 1027.2 1027.2 0.0
21/04:30am 4.4 1.6 2.9 90 0.6 SSW 7 11 4 6 1027.3 1027.3 0.0
21/04:00am 5.0 1.5 3.3 89 0.7 SSW 11 15 6 8 1027.3 1027.3 0.0
21/03:30am 5.4 1.9 3.6 88 0.8 S 11 15 6 8 1027.6 1027.6 0.0
21/03:00am 5.9 2.1 3.7 86 0.9 S 13 17 7 9 1027.8 1027.8 0.0
21/02:30am 6.4 2.6 3.9 84 1.1 S 13 19 7 10 1028.0 1028.0 0.0
21/02:00am 6.4 3.0 4.1 85 1.0 S 11 17 6 9 1028.3 1028.3 0.0
21/01:30am 6.7 3.3 4.2 84 1.1 S 11 17 6 9 1028.5 1028.5 0.0
21/01:00am 7.4 3.6 4.0 79 1.5 S 13 17 7 9 1028.7 1028.7 0.0
21/12:30am 8.0 4.2 3.8 75 1.8 S 13 17 7 9 1028.8 1028.8 0.0
21/12:00am 8.7 5.3 3.9 72 2.1 SSE 11 17 6 9 1028.9 1028.9 0.0
 
Date/Time
EDT
Temp
°C
App
Temp
°C
Dew
Point
°C
Rel
Hum
%
Delta-T
°C
Wind Press
QNH
hPa
Press
MSL
hPa
Rain since
9am
mm
Dir  Spd
km/h
Gust
km/h
Spd
kts
Gust
kts
20/11:30pm 9.5 4.6 3.9 68 2.5 SSE 19 24 10 13 1028.9 1028.9 0.0
20/11:00pm 10.3 5.4 4.0 65 2.8 SSE 19 26 10 14 1029.0 1029.0 0.0
20/10:30pm 11.1 6.2 4.3 63 3.1 SSE 19 32 10 17 1028.9 1028.9 0.0
20/10:00pm 12.1 6.3 4.6 60 3.4 SSE 24 35 13 19 1028.6 1028.6 0.0
20/09:30pm 13.2 8.4 5.4 59 3.7 S 20 32 11 17 1028.5 1028.5 0.0
20/09:00pm 14.1 9.3 4.9 54 4.3 S 19 28 10 15 1028.2 1028.2 0.0
20/08:30pm 14.8 10.0 4.5 50 4.8 SSW 19 28 10 15 1027.8 1027.8 0.0
20/08:00pm 15.6 10.5 4.3 47 5.2 SSW 20 28 11 15 1027.4 1027.4 0.0
20/07:30pm 16.9 11.5 4.3 43 5.9 SSW 22 33 12 18 1026.8 1026.8 0.0
20/07:00pm 18.0 12.1 3.9 39 6.6 SSW 24 35 13 19 1026.6 1026.6 0.0
20/06:30pm 18.7 12.6 2.9 35 7.3 S 24 35 13 19 1026.3 1026.3 0.0
20/06:00pm 19.1 12.6 2.9 34 7.5 S 26 37 14 20 1026.2 1026.2 0.0
20/05:30pm 19.5 13.1 3.2 34 7.7 S 26 37 14 20 1026.2 1026.2 0.0
20/05:00pm 20.0 13.7 3.7 34 7.7 S 26 41 14 22 1026.1 1026.1 0.0
20/04:30pm 20.0 14.4 3.3 33 7.9 S 22 39 12 21 1026.0 1026.0 0.0
20/04:00pm 19.6 12.8 2.9 33 7.8 S 28 41 15 22 1026.2 1026.2 0.0
20/03:36pm 19.8 13.0 3.1 33 7.9 SSW 28 50 15 27 1026.5 1026.5 0.0
20/03:30pm 20.1 14.0 2.9 32 8.1 S 24 44 13 24 1026.4 1026.4 0.0
20/03:00pm 19.8 13.7 2.6 32 8.0 S 24 35 13 19 1026.7 1026.7 0.0
20/02:30pm 19.9 14.3 3.2 33 7.9 S 22 39 12 21 1027.0 1027.0 0.0
20/02:00pm 18.8 13.1 3.0 35 7.3 S 22 35 12 19 1027.3 1027.3 0.0
20/01:30pm 19.2 14.0 3.4 35 7.4 S 20 32 11 17 1027.6 1027.6 0.0
20/01:00pm 18.0 11.8 2.3 35 7.1 S 24 39 13 21 1028.1 1028.1 0.0
20/12:30pm 17.7 12.4 2.1 35 7.1 S 19 33 10 18 1028.4 1028.4 0.0
20/12:00pm 17.0 10.5 0.6 33 7.1 SSW 24 35 13 19 1028.7 1028.7 0.0
20/11:30am 15.9 10.4 1.6 38 6.3 S 20 35 11 19 1028.8 1028.8 0.0
20/11:00am 15.7 9.8 1.8 39 6.1 S 22 32 12 17 1029.0 1029.0 0.0
20/10:30am 14.2 9.3 5.0 54 4.3 S 20 30 11 16 1029.0 1029.0 0.0
20/10:00am 14.9 9.5 6.2 56 4.2 S 24 35 13 19 1028.8 1028.8 0.0
20/09:30am 13.7 7.3 5.1 56 4.0 S 28 37 15 20 1028.7 1028.7 0.0
20/09:00am 13.1 8.3 7.3 68 2.8 S 22 30 12 16 1028.5 1028.5 0.0
20/08:30am 11.3 7.1 8.3 82 1.5 SSW 20 30 11 16 1028.2 1028.2 0.0
20/08:00am 9.9 6.4 8.7 92 0.6 SSW 17 24 9 13 1028.0 1028.0 0.0
20/07:30am 8.5 5.5 7.9 96 0.3 SW 13 17 7 9 1027.5 1027.5 0.0
20/07:00am 7.9 4.9 7.6 98 0.1 SW 13 17 7 9 1027.2 1027.2 0.0
20/06:30am 7.0 4.2 6.9 99 0.0 SW 11 15 6 8 1026.6 1026.6 0.0
20/06:00am 6.1 3.9 5.5 96 0.3 SW 6 7 3 4 1026.3 1026.3 0.0
20/05:30am 7.0 4.9 6.7 98 0.1 SSW 7 9 4 5 1026.2 1026.2 0.0
20/05:00am 6.5 4.5 6.2 98 0.1 SW 6 6 3 3 1025.9 1025.8 0.0
20/04:30am 5.8 3.6 5.4 97 0.2 SW 6 7 3 4 1025.6 1025.5 0.0
20/04:00am 5.6 3.1 5.0 96 0.3 SW 7 9 4 5 1025.6 1025.5 0.0
20/03:30am 5.6 2.7 4.9 95 0.3 SW 9 11 5 6 1025.5 1025.4 0.0
20/03:00am 6.4 3.6 5.2 92 0.5 SW 9 11 5 6 1025.5 1025.4 0.0
20/02:30am 7.7 5.2 6.6 93 0.5 SW 9 15 5 8 1025.5 1025.4 0.0
20/02:00am 7.4 4.4 6.0 91 0.6 SW 11 11 6 6 1025.6 1025.5 0.0
20/01:30am 8.0 5.8 6.1 88 0.9 SW 7 9 4 5 1025.6 1025.5 0.0
20/01:00am 9.1 5.8 6.5 84 1.2 SW 13 17 7 9 1025.4 1025.3 0.0
20/12:30am 9.8 5.8 6.7 81 1.5 SW 17 20 9 11 1025.2 1025.1 0.0
20/12:00am 10.6 6.6 6.7 77 1.8 SW 17 22 9 12 1025.2 1025.1 0.0
 
Date/Time
EDT
Temp
°C
App
Temp
°C
Dew
Point
°C
Rel
Hum
%
Delta-T
°C
Wind Press
QNH
hPa
Press
MSL
hPa
Rain since
9am
mm
Dir  Spd
km/h
Gust
km/h
Spd
kts
Gust
kts
19/11:30pm 11.6 6.7 6.7 72 2.3 SW 22 32 12 17 1025.0 1024.9 0.0
19/11:00pm 12.1 7.6 7.0 71 2.4 SSW 20 30 11 16 1024.8 1024.7 0.0
19/10:30pm 12.4 8.3 7.7 73 2.3 SW 19 24 10 13 1024.5 1024.4 0.0
19/10:00pm 13.1 9.4 8.0 71 2.5 SW 17 19 9 10 1024.4 1024.3 0.0
19/09:30pm 13.9 10.6 8.1 68 2.9 SW 15 22 8 12 1023.9 1023.8 0.0
19/09:00pm 14.4 11.6 8.4 67 3.0 SW 13 15 7 8 1023.2 1023.1 0.0
19/08:30pm 16.1 13.2 8.1 59 4.1 SW 13 19 7 10 1022.5 1022.4 0.0
19/08:00pm 17.2 12.6 8.1 55 4.6 SW 22 32 12 17 1021.7 1021.6 0.0
19/07:30pm 17.9 12.2 8.2 53 5.0 WSW 28 41 15 22 1021.1 1021.0 0.0
19/07:00pm 18.7 14.3 10.3 58 4.5 WSW 24 32 13 17 1020.1 1020.0 0.0
19/06:30pm 19.4 15.1 10.9 58 4.6 WSW 24 33 13 18 1020.0 1019.9 0.0
19/06:00pm 19.8 15.0 11.6 59 4.5 WSW 28 35 15 19 1019.8 1019.7 0.0
19/05:30pm 20.7 15.5 11.6 56 5.1 SW 30 39 16 21 1019.2 1019.1 0.0

Other Formats:

Comma delimited format used in spreadsheet applications
http://www.bom.gov.au/fwo/IDV60801/IDV60801.94838.axf

JavaScript Object Notation format (JSON) in row-major order
http://www.bom.gov.au/fwo/IDV60801/IDV60801.94838.json